Time;durP1;ratioP1;P1;durP2;ratioP2;P2;SDS_P1;SDS_P2;PMS_P1;PMS_P2;Temp;Humidity;BMP_temperature;BMP_pressure;BME280_temperature;BME280_humidity;BME280_pressure;Samples;Min_cycle;Max_cycle;Signal;HPM_P1;HPM_P2
2022/08/15 00:01:24;;;;;;;6.10;4.90;;;;;;;28.93;47.14;99923.77;104604;1308;61337;-82
2022/08/15 00:03:56;;;;;;;7.00;4.70;;;;;;;28.93;47.31;99927.95;104558;1309;61580;-82
2022/08/15 00:06:32;;;;;;;6.70;4.90;;;;;;;28.93;47.21;99926.52;104606;1308;74016;-82
2022/08/15 00:08:59;;;;;;;6.60;4.90;;;;;;;28.92;47.25;99927.48;104520;1309;75551;-81
2022/08/15 00:11:33;;;;;;;6.30;5.00;;;;;;;28.92;47.27;99931.45;104567;1309;61171;-81
2022/08/15 00:14:07;;;;;;;7.00;5.00;;;;;;;28.92;47.11;99929.66;104504;1308;61394;-81
2022/08/15 00:16:36;;;;;;;6.00;4.70;;;;;;;28.92;47.25;99926.61;104622;1309;71929;-82
2022/08/15 00:19:15;;;;;;;;;;;;;;;28.92;47.19;99926.64;104605;1309;75765;-81
2022/08/15 00:21:44;;;;;;;6.00;5.00;;;;;;;28.89;47.36;99923.11;104592;1309;61112;-82
2022/08/15 00:24:11;;;;;;;7.50;4.90;;;;;;;28.90;47.23;99919.74;104534;1308;61371;-81
2022/08/15 00:26:37;;;;;;;6.50;4.90;;;;;;;28.90;47.08;99923.02;104579;1308;73910;-81
2022/08/15 00:29:03;;;;;;;6.90;5.10;;;;;;;28.90;47.16;99925.40;104594;1308;61297;-82
2022/08/15 00:31:31;;;;;;;7.20;5.10;;;;;;;28.90;47.05;99923.00;104553;1309;61426;-82
2022/08/15 00:33:58;;;;;;;6.00;4.60;;;;;;;28.90;47.15;99927.16;104576;1308;61558;-82
2022/08/15 00:36:26;;;;;;;6.30;4.90;;;;;;;28.90;47.28;99930.42;104634;1308;73213;-82
2022/08/15 00:38:52;;;;;;;6.20;5.10;;;;;;;28.90;47.25;99928.98;104496;1309;75575;-82
2022/08/15 00:44:05;;;;;;;6.30;4.80;;;;;;;28.90;47.40;99935.02;104644;1309;61262;-82
2022/08/15 00:46:30;;;;;;;7.40;5.00;;;;;;;28.90;47.39;99936.05;104629;1308;72866;-81
2022/08/15 00:48:56;;;;;;;6.10;4.80;;;;;;;28.89;47.30;99935.40;104556;1309;61367;-81
2022/08/15 00:51:34;;;;;;;6.40;5.00;;;;;;;28.90;47.07;99934.50;104501;1309;61259;-81
2022/08/15 00:54:20;;;;;;;5.70;4.90;;;;;;;28.90;47.33;99934.25;104678;1309;61150;-81
2022/08/15 00:56:49;;;;;;;7.30;5.10;;;;;;;28.89;47.34;99934.52;104497;1309;73784;-81
2022/08/15 00:59:16;;;;;;;5.80;4.90;;;;;;;28.89;47.32;99936.17;104576;1309;75600;-81
2022/08/15 01:01:42;;;;;;;5.90;4.70;;;;;;;28.90;47.40;99937.00;104468;1308;61185;-82
2022/08/15 01:04:09;;;;;;;6.30;4.50;;;;;;;28.89;47.44;99933.23;104566;1308;61292;-81
2022/08/15 01:06:37;;;;;;;5.50;4.80;;;;;;;28.90;47.07;99938.46;104467;1309;72823;-82
2022/08/15 01:09:05;;;;;;;5.60;4.40;;;;;;;28.90;47.41;99937.55;104583;1308;75960;-82
2022/08/15 01:11:32;;;;;;;5.70;4.80;;;;;;;28.89;47.41;99934.70;104596;1309;61835;-82
2022/08/15 01:14:01;;;;;;;5.80;4.60;;;;;;;28.89;47.37;99936.70;104543;1308;61315;-82
2022/08/15 01:16:27;;;;;;;7.20;5.00;;;;;;;28.89;47.42;99935.95;104525;1309;72988;-82
2022/08/15 01:18:52;;;;;;;9.00;4.90;;;;;;;28.90;47.35;99937.59;104518;1309;61297;-81
2022/08/15 01:21:29;;;;;;;6.40;5.30;;;;;;;28.89;47.29;99941.04;104466;1309;61266;-81
2022/08/15 01:24:16;;;;;;;5.70;4.50;;;;;;;28.89;47.19;99938.89;104583;1309;61124;-81
2022/08/15 01:26:42;;;;;;;5.80;4.80;;;;;;;28.89;47.33;99939.08;104602;1309;73382;-82
2022/08/15 01:29:07;;;;;;;7.90;4.70;;;;;;;28.89;47.14;99940.34;104562;1309;61383;-81
2022/08/15 01:31:33;;;;;;;5.80;4.90;;;;;;;28.89;47.23;99939.45;104610;1309;61292;-81
2022/08/15 01:33:59;;;;;;;6.70;5.10;;;;;;;28.89;47.15;99941.09;104654;1309;61249;-80
2022/08/15 01:36:27;;;;;;;5.50;4.70;;;;;;;28.89;47.38;99942.00;104622;1309;61267;-80
2022/08/15 01:39:15;;;;;;;6.50;5.00;;;;;;;28.89;47.33;99947.44;104530;1309;61264;-81
2022/08/15 01:41:54;;;;;;;5.80;4.80;;;;;;;28.89;47.19;99956.37;104637;1308;61506;-82
2022/08/15 01:44:35;;;;;;;6.50;5.00;;;;;;;28.88;47.19;99963.81;104568;1309;61383;-82
2022/08/15 01:47:48;;;;;;;6.10;4.80;;;;;;;28.88;47.22;99973.25;104628;1308;71626;-82
2022/08/15 01:50:23;;;;;;;6.10;4.50;;;;;;;28.88;47.23;99979.47;104485;1309;75653;-81
2022/08/15 01:52:56;;;;;;;6.00;4.80;;;;;;;28.87;47.20;99978.26;104698;1307;61247;-82
2022/08/15 01:55:36;;;;;;;7.00;5.20;;;;;;;28.88;47.35;99969.14;104688;1306;61294;-81
2022/08/15 01:58:04;;;;;;;5.80;4.90;;;;;;;28.88;47.41;99968.40;104676;1308;73602;-81
2022/08/15 02:00:30;;;;;;;6.00;5.00;;;;;;;28.88;47.32;99966.90;104659;1309;74795;-81
2022/08/15 02:02:56;;;;;;;6.20;5.00;;;;;;;28.88;47.18;99960.59;104598;1308;61291;-81
2022/08/15 02:05:21;;;;;;;6.10;4.80;;;;;;;28.88;47.31;99958.20;104613;1307;61350;-82
2022/08/15 02:07:47;;;;;;;5.40;4.60;;;;;;;28.88;47.26;99942.63;104524;1308;61282;-82
2022/08/15 02:10:12;;;;;;;6.10;4.90;;;;;;;28.88;47.23;99940.27;104586;1309;61233;-82
2022/08/15 02:12:40;;;;;;;6.00;4.80;;;;;;;28.88;47.36;99938.11;104625;1308;61236;-81
2022/08/15 02:15:16;;;;;;;5.90;4.90;;;;;;;28.88;47.29;99935.77;104601;1309;61711;-81
2022/08/15 02:17:42;;;;;;;6.20;4.80;;;;;;;28.88;47.29;99928.58;104612;1307;61841;-81
2022/08/15 02:20:09;;;;;;;7.00;5.10;;;;;;;28.87;47.39;99921.38;104549;1309;61285;-81
2022/08/15 02:22:34;;;;;;;7.00;4.80;;;;;;;28.87;47.28;99915.06;104527;1309;74723;-81
2022/08/15 02:25:00;;;;;;;5.90;5.00;;;;;;;28.87;47.44;99912.70;104552;1309;61288;-81
2022/08/15 02:27:28;;;;;;;6.50;4.90;;;;;;;28.87;47.09;99914.73;104598;1307;62493;-81
2022/08/15 02:29:54;;;;;;;6.20;4.80;;;;;;;28.87;47.31;99921.06;104554;1309;74474;-81
2022/08/15 02:32:20;;;;;;;5.20;4.60;;;;;;;28.86;47.20;99924.75;104442;1309;61288;-81
2022/08/15 02:34:46;;;;;;;5.60;4.80;;;;;;;28.86;47.34;99933.10;104549;1309;61348;-81
2022/08/15 02:37:18;;;;;;;7.10;4.90;;;;;;;28.86;47.28;99935.61;104545;1309;61375;-81
2022/08/15 02:39:48;;;;;;;6.10;4.90;;;;;;;28.86;47.52;99930.42;104518;1309;72794;-81
2022/08/15 02:42:15;;;;;;;5.80;5.00;;;;;;;28.86;47.45;99930.63;104597;1308;74727;-81
2022/08/15 02:44:41;;;;;;;6.50;5.00;;;;;;;28.86;47.52;99929.16;104513;1309;61853;-81
2022/08/15 02:47:07;;;;;;;6.10;4.80;;;;;;;28.86;47.50;99930.23;104575;1309;61269;-81
2022/08/15 02:49:34;;;;;;;5.80;4.50;;;;;;;28.86;47.48;99933.00;104540;1309;61137;-81
2022/08/15 02:52:00;;;;;;;6.60;4.90;;;;;;;28.85;47.54;99933.38;104477;1309;61277;-81
2022/08/15 02:54:26;;;;;;;6.50;5.20;;;;;;;28.85;47.41;99935.55;104536;1308;61298;-81
2022/08/15 02:56:56;;;;;;;6.10;4.90;;;;;;;28.85;47.52;99937.23;104604;1308;61412;-81
2022/08/15 02:59:22;;;;;;;6.40;5.20;;;;;;;28.85;47.65;99938.85;104465;1309;73785;-81
2022/08/15 03:01:47;;;;;;;7.30;5.20;;;;;;;28.85;47.36;99944.49;104548;1308;61243;-81
2022/08/15 03:04:17;;;;;;;5.50;4.50;;;;;;;28.85;47.46;99952.29;103594;1308;1352620;-81
2022/08/15 03:06:46;;;;;;;5.40;4.80;;;;;;;28.85;47.75;99949.41;104649;1308;61130;-81
2022/08/15 03:09:12;;;;;;;;;;;;;;;28.85;47.48;99959.17;104522;1309;72944;-81
2022/08/15 03:11:39;;;;;;;5.60;5.00;;;;;;;28.82;47.50;99958.77;104594;1308;61263;-81
2022/08/15 03:14:07;;;;;;;5.40;4.40;;;;;;;28.83;47.37;99960.69;104603;1309;61417;-81
2022/08/15 03:16:37;;;;;;;6.40;5.00;;;;;;;28.83;47.50;99962.66;104618;1309;61265;-81
2022/08/15 03:19:03;;;;;;;5.90;4.70;;;;;;;28.83;47.74;99964.13;104458;1309;73721;-81
2022/08/15 03:21:29;;;;;;;6.60;4.90;;;;;;;28.82;47.66;99963.27;104563;1309;61254;-81
2022/08/15 03:23:55;;;;;;;7.20;4.80;;;;;;;28.83;47.48;99964.13;104594;1307;61215;-81
2022/08/15 03:26:22;;;;;;;6.00;4.60;;;;;;;28.83;47.66;99963.71;104576;1309;61276;-82
2022/08/15 03:28:48;;;;;;;6.20;4.90;;;;;;;28.82;47.39;99962.16;104473;1309;61216;-82
2022/08/15 03:31:14;;;;;;;7.40;4.70;;;;;;;28.82;47.45;99972.64;104542;1309;61254;-81
2022/08/15 03:33:40;;;;;;;5.90;4.80;;;;;;;28.83;47.63;99970.63;104473;1309;61414;-82
2022/08/15 03:36:07;;;;;;;6.30;4.70;;;;;;;28.82;47.55;99975.73;104542;1309;61278;-81
2022/08/15 03:38:32;;;;;;;5.80;4.90;;;;;;;28.83;47.59;99976.45;104557;1309;61173;-81
2022/08/15 03:40:59;;;;;;;6.00;5.20;;;;;;;28.83;47.46;99980.42;104589;1309;61378;-82
2022/08/15 03:43:29;;;;;;;5.40;4.80;;;;;;;28.82;47.51;99975.57;104635;1308;61279;-81
2022/08/15 03:45:59;;;;;;;5.60;4.80;;;;;;;28.82;47.66;99975.02;104540;1309;61314;-81
2022/08/15 03:48:30;;;;;;;6.20;5.10;;;;;;;28.82;47.73;99976.14;104562;1309;72973;-81
2022/08/15 03:50:56;;;;;;;6.10;5.30;;;;;;;28.82;47.63;99978.15;104606;1309;74805;-81
2022/08/15 03:53:22;;;;;;;5.60;4.90;;;;;;;28.82;47.65;99987.96;104615;1308;61699;-82
2022/08/15 03:55:47;;;;;;;6.40;5.10;;;;;;;28.82;47.59;99986.67;104548;1308;61381;-81
2022/08/15 03:58:13;;;;;;;5.80;5.10;;;;;;;28.81;47.51;99984.36;104563;1309;61279;-81
2022/08/15 04:00:46;;;;;;;5.80;4.60;;;;;;;28.82;47.78;99985.24;104571;1307;61385;-82
2022/08/15 04:03:14;;;;;;;5.80;5.00;;;;;;;28.82;47.69;99988.09;104630;1308;61176;-81
2022/08/15 04:05:41;;;;;;;6.50;4.90;;;;;;;28.82;47.73;99984.30;104626;1309;61290;-81
2022/08/15 04:08:09;;;;;;;5.30;4.80;;;;;;;28.82;47.75;99979.45;104539;1309;73002;-81
2022/08/15 04:10:35;;;;;;;8.00;4.60;;;;;;;28.82;47.80;99980.70;104482;1309;74431;-81
2022/08/15 04:13:01;;;;;;;5.80;4.80;;;;;;;28.82;47.96;99977.61;104594;1309;61911;-81
2022/08/15 04:15:27;;;;;;;6.00;4.70;;;;;;;28.82;47.60;99982.70;104570;1309;61307;-81
2022/08/15 04:17:55;;;;;;;7.10;4.90;;;;;;;28.82;47.75;99980.94;104575;1309;61414;-81
2022/08/15 04:20:20;;;;;;;6.70;5.10;;;;;;;28.82;47.58;99981.25;104530;1309;61265;-81
2022/08/15 04:22:49;;;;;;;6.00;5.10;;;;;;;28.82;47.70;99978.90;104664;1307;61284;-81
2022/08/15 04:25:18;;;;;;;5.60;4.70;;;;;;;28.82;47.64;99975.46;104619;1308;61313;-82
2022/08/15 04:27:48;;;;;;;7.30;5.00;;;;;;;28.82;47.61;99979.82;104541;1309;74069;-81
2022/08/15 04:30:13;;;;;;;6.40;5.30;;;;;;;28.81;47.67;99980.23;104471;1307;76944;-83
2022/08/15 04:32:39;;;;;;;7.10;4.90;;;;;;;28.82;47.78;99981.98;104605;1309;61417;-81
2022/08/15 04:35:08;;;;;;;6.20;4.60;;;;;;;28.82;47.86;99988.30;104534;1309;61282;-81
2022/08/15 04:37:37;;;;;;;6.90;5.00;;;;;;;28.82;47.60;99989.04;104617;1308;72782;-81
2022/08/15 04:40:07;;;;;;;5.60;4.80;;;;;;;28.82;47.80;99992.86;104538;1309;76118;-82
2022/08/15 04:42:33;;;;;;;5.00;4.50;;;;;;;28.82;47.64;99996.66;104480;1309;61557;-80
2022/08/15 04:44:58;;;;;;;6.40;4.80;;;;;;;28.82;47.85;99999.37;104596;1309;61373;-82
2022/08/15 04:47:24;;;;;;;7.10;5.20;;;;;;;28.82;47.99;100002.09;104457;1308;61258;-82
2022/08/15 04:49:50;;;;;;;6.30;4.80;;;;;;;28.82;47.63;99998.29;104453;1309;61707;-81
2022/08/15 04:52:17;;;;;;;6.40;4.60;;;;;;;28.82;47.73;99994.81;104530;1308;61287;-81
2022/08/15 04:54:43;;;;;;;6.60;4.80;;;;;;;28.82;47.86;99998.29;104548;1309;61247;-81
2022/08/15 04:57:09;;;;;;;6.30;5.00;;;;;;;28.82;47.92;99999.74;104460;1309;61297;-81
2022/08/15 04:59:36;;;;;;;5.80;5.10;;;;;;;28.82;47.79;99998.96;104627;1308;61376;-81
2022/08/15 05:02:06;;;;;;;6.40;5.20;;;;;;;28.82;47.71;100004.93;104574;1309;61242;-81
2022/08/15 05:04:32;;;;;;;6.50;4.80;;;;;;;28.82;47.97;100004.27;104583;1308;61538;-82
2022/08/15 05:06:58;;;;;;;7.00;4.90;;;;;;;28.82;47.79;100002.39;104558;1309;61259;-82
2022/08/15 05:09:23;;;;;;;7.70;5.20;;;;;;;28.82;47.82;100005.52;104593;1309;61281;-81
2022/08/15 05:11:49;;;;;;;6.70;5.20;;;;;;;28.82;47.90;100006.02;104534;1309;61306;-81
2022/08/15 05:14:15;;;;;;;6.50;5.20;;;;;;;28.82;48.01;100008.02;104527;1308;61213;-81
2022/08/15 05:16:41;;;;;;;6.50;5.00;;;;;;;28.82;47.69;100007.69;104615;1308;61267;-81
2022/08/15 05:19:07;;;;;;;7.50;5.30;;;;;;;28.82;47.92;100009.86;104525;1309;73821;-81
2022/08/15 05:21:32;;;;;;;6.20;5.00;;;;;;;28.82;47.96;100011.36;104585;1308;61294;-81
2022/08/15 05:23:58;;;;;;;5.90;5.00;;;;;;;28.81;47.84;100013.19;104522;1309;61288;-81
2022/08/15 05:26:24;;;;;;;5.70;4.70;;;;;;;28.82;47.91;100017.09;104540;1309;61827;-82
2022/08/15 05:28:49;;;;;;;5.40;4.70;;;;;;;28.82;48.23;100014.20;104528;1309;61412;-81
2022/08/15 05:31:16;;;;;;;6.80;5.40;;;;;;;28.82;47.84;100015.67;104636;1309;61253;-81
2022/08/15 05:33:44;;;;;;;6.90;4.90;;;;;;;28.81;47.73;100014.61;104537;1309;75835;-81
2022/08/15 05:36:10;;;;;;;6.60;5.30;;;;;;;28.82;47.96;100022.19;104636;1309;61271;-81
2022/08/15 05:38:50;;;;;;;6.80;5.30;;;;;;;28.81;48.18;100025.32;104610;1308;59831;-81
2022/08/15 05:41:40;;;;;;;6.60;5.10;;;;;;;28.82;47.97;100027.62;104445;1309;74173;-81
2022/08/15 05:44:16;;;;;;;5.70;4.70;;;;;;;28.82;48.07;100029.45;104546;1308;75727;-81
2022/08/15 05:46:43;;;;;;;6.30;5.00;;;;;;;28.82;47.99;100029.04;104573;1308;61724;-81
2022/08/15 05:49:34;;;;;;;6.10;5.00;;;;;;;28.81;48.10;100033.29;104620;1308;61434;-81
2022/08/15 05:52:09;;;;;;;6.50;5.50;;;;;;;28.81;47.96;100036.92;104534;1309;73786;-82
2022/08/15 05:55:02;;;;;;;5.60;4.90;;;;;;;28.81;47.93;100035.85;104631;1309;74818;-82
2022/08/15 05:57:54;;;;;;;5.80;4.90;;;;;;;28.81;47.87;100036.72;104584;1309;61168;-81
2022/08/15 06:00:20;;;;;;;6.20;4.90;;;;;;;28.80;48.06;100035.38;104562;1309;61624;-82
2022/08/15 06:02:49;;;;;;;6.50;5.30;;;;;;;28.81;47.97;100032.04;104605;1308;62386;-82
2022/08/15 06:05:24;;;;;;;6.90;5.20;;;;;;;28.82;47.94;100033.96;104449;1309;75756;-82
2022/08/15 06:07:50;;;;;;;6.80;5.10;;;;;;;28.82;47.71;100033.19;104599;1308;61357;-82
2022/08/15 06:10:37;;;;;;;5.60;4.90;;;;;;;28.81;47.70;100032.92;104605;1309;61390;-81
2022/08/15 06:13:19;;;;;;;6.80;5.50;;;;;;;28.82;47.96;100030.34;104596;1309;73825;-82
2022/08/15 06:15:50;;;;;;;6.60;5.20;;;;;;;28.83;47.90;100034.20;104491;1308;77034;-81
2022/08/15 06:18:17;;;;;;;7.30;5.00;;;;;;;28.82;47.80;100029.92;104585;1309;62278;-81
2022/08/15 06:20:49;;;;;;;7.30;5.40;;;;;;;28.83;48.04;100034.20;104457;1309;61878;-81
2022/08/15 06:23:34;;;;;;;6.30;5.00;;;;;;;28.83;47.76;100030.94;104636;1308;73937;-80
2022/08/15 06:26:27;;;;;;;6.20;5.00;;;;;;;28.83;47.97;100032.91;104573;1309;74785;-80
2022/08/15 06:28:56;;;;;;;6.40;5.40;;;;;;;28.82;47.84;100035.50;104629;1309;61165;-81
2022/08/15 06:31:22;;;;;;;6.80;5.50;;;;;;;28.83;47.94;100033.04;104587;1309;61148;-82
2022/08/15 06:33:57;;;;;;;6.90;5.50;;;;;;;28.83;47.91;100022.76;104619;1307;61249;-81
2022/08/15 06:37:14;;;;;;;7.50;5.30;;;;;;;28.83;47.86;100021.48;104623;1308;75819;-81
2022/08/15 06:39:58;;;;;;;7.40;5.40;;;;;;;28.83;48.14;100015.86;104190;1315;61299;-82
2022/08/15 06:42:37;;;;;;;6.00;5.30;;;;;;;28.83;48.19;100020.55;104090;1315;61166;-82
2022/08/15 06:45:36;;;;;;;6.90;5.40;;;;;;;28.83;47.96;100026.15;104205;1315;72906;-81
2022/08/15 06:48:07;;;;;;;7.30;5.20;;;;;;;28.83;48.04;100027.34;103308;1322;75685;-81
2022/08/15 06:50:53;;;;;;;7.60;5.70;;;;;;;28.84;48.02;100033.35;103321;1322;61310;-82
2022/08/15 06:53:31;;;;;;;6.50;5.30;;;;;;;28.83;48.26;100025.41;103299;1323;61434;-82
2022/08/15 06:56:05;;;;;;;7.70;5.60;;;;;;;28.83;47.99;100016.73;103269;1322;73838;-82
2022/08/15 06:58:56;;;;;;;7.40;5.50;;;;;;;28.84;48.27;100016.36;103321;1323;76148;-82
2022/08/15 07:01:31;;;;;;;6.60;5.50;;;;;;;28.83;48.14;100019.27;103290;1323;61283;-82
2022/08/15 07:04:17;;;;;;;6.80;5.30;;;;;;;28.84;48.18;100014.71;103300;1322;61230;-82
2022/08/15 07:06:54;;;;;;;7.30;5.50;;;;;;;28.83;48.18;100016.91;103164;1323;72737;-82
2022/08/15 07:09:55;;;;;;;5.80;5.10;;;;;;;28.83;48.26;100019.13;103273;1323;74821;-81
2022/08/15 07:12:31;;;;;;;6.90;5.70;;;;;;;28.83;48.27;100011.11;103284;1323;61282;-81
2022/08/15 07:15:04;;;;;;;7.10;5.60;;;;;;;28.83;48.32;100006.12;103562;1316;61408;-81
2022/08/15 07:17:38;;;;;;;6.50;5.30;;;;;;;28.83;48.17;99999.90;104118;1315;73073;-82
2022/08/15 07:20:06;;;;;;;7.70;5.40;;;;;;;28.84;48.27;99993.64;104176;1315;74897;-82
2022/08/15 07:22:33;;;;;;;6.80;5.70;;;;;;;28.85;48.14;99989.40;104088;1315;61389;-81
2022/08/15 07:24:58;;;;;;;5.50;4.80;;;;;;;28.85;48.49;99988.24;104153;1309;61276;-82
2022/08/15 07:27:29;;;;;;;6.00;5.40;;;;;;;28.86;48.32;99991.23;104583;1309;61251;-82
2022/08/15 07:30:17;;;;;;;6.90;5.50;;;;;;;28.87;48.40;99991.25;104454;1309;75745;-82
2022/08/15 07:32:51;;;;;;;7.00;5.20;;;;;;;28.88;48.43;99991.92;104582;1308;61282;-81
2022/08/15 07:35:19;;;;;;;7.50;5.50;;;;;;;28.89;48.62;99993.11;104415;1309;61168;-81
2022/08/15 07:37:56;;;;;;;7.40;5.80;;;;;;;28.90;48.41;99994.39;104586;1308;72719;-81
2022/08/15 07:40:38;;;;;;;6.20;5.50;;;;;;;28.91;48.46;100000.05;104625;1309;74689;-81
2022/08/15 07:43:15;;;;;;;6.90;5.30;;;;;;;28.91;48.45;99996.97;104631;1309;61179;-81
2022/08/15 07:45:41;;;;;;;6.20;5.00;;;;;;;28.92;48.32;99997.02;104585;1309;61596;-80
2022/08/15 07:48:24;;;;;;;6.30;5.30;;;;;;;28.92;48.52;99998.45;104589;1308;61298;-80
2022/08/15 07:51:15;;;;;;;7.00;5.40;;;;;;;28.93;48.34;99997.09;104511;1309;75883;-81
2022/08/15 07:53:59;;;;;;;6.50;5.30;;;;;;;28.93;48.51;99993.83;104602;1309;61301;-81
2022/08/15 07:56:26;;;;;;;5.80;5.10;;;;;;;28.93;48.47;99994.77;104552;1309;61276;-81
2022/08/15 07:59:07;;;;;;;6.00;5.30;;;;;;;28.93;48.60;99997.46;104582;1309;72775;-81
2022/08/15 08:01:33;;;;;;;6.00;4.90;;;;;;;28.94;48.47;99999.39;104558;1309;75683;-81
2022/08/15 08:04:11;;;;;;;6.00;4.90;;;;;;;28.95;48.29;100003.46;104597;1309;61416;-81
2022/08/15 08:06:52;;;;;;;5.70;5.00;;;;;;;28.96;48.68;99999.74;104545;1309;61229;-82
2022/08/15 08:09:36;;;;;;;6.20;5.10;;;;;;;28.96;48.56;100001.01;104611;1309;73758;-81
2022/08/15 08:12:07;;;;;;;5.90;5.10;;;;;;;28.95;48.39;99996.86;104605;1307;74643;-82
2022/08/15 08:14:50;;;;;;;6.00;5.00;;;;;;;28.96;48.29;100000.96;104610;1308;61267;-81
2022/08/15 08:17:42;;;;;;;6.00;5.20;;;;;;;28.96;48.61;100002.90;104575;1308;61279;-81
2022/08/15 08:20:22;;;;;;;5.70;5.10;;;;;;;28.97;48.53;100006.46;104146;1309;72916;-81
2022/08/15 08:23:22;;;;;;;5.90;5.10;;;;;;;28.98;48.79;100005.68;104690;1309;75816;-81
2022/08/15 08:26:23;;;;;;;6.40;5.30;;;;;;;28.99;48.59;100011.69;104209;1308;61214;-81
2022/08/15 08:28:55;;;;;;;5.80;4.70;;;;;;;28.99;48.61;100016.39;104354;1309;61236;-81
2022/08/15 08:31:50;;;;;;;6.50;5.20;;;;;;;28.99;48.54;100020.50;104341;1309;74043;-81
2022/08/15 08:34:58;;;;;;;5.90;5.00;;;;;;;29.00;48.62;100024.45;104306;1308;75080;-82
2022/08/15 08:37:31;;;;;;;5.50;4.80;;;;;;;29.00;48.79;100028.98;104364;1308;61264;-81
2022/08/15 08:43:40;;;;;;;6.40;5.10;;;;;;;29.00;48.60;100027.13;104204;1315;73745;-81
2022/08/15 08:46:21;;;;;;;5.80;5.00;;;;;;;29.00;48.28;100024.99;103287;1321;75886;-81
2022/08/15 08:48:57;;;;;;;6.20;4.80;;;;;;;29.00;48.33;100028.22;103340;1320;61424;-81
2022/08/15 08:51:40;;;;;;;6.90;5.10;;;;;;;28.99;48.29;100027.91;103332;1320;61359;-81
2022/08/15 08:54:12;;;;;;;6.70;5.10;;;;;;;28.99;48.42;100031.58;103373;1320;73922;-80
2022/08/15 08:56:45;;;;;;;6.00;4.90;;;;;;;29.00;48.45;100034.42;103331;1321;74792;-80
2022/08/15 08:59:25;;;;;;;5.90;5.00;;;;;;;28.99;48.51;100036.51;103218;1321;61499;-82
2022/08/15 09:01:54;;;;;;;6.70;5.10;;;;;;;28.99;48.33;100038.14;103369;1320;61289;-83
2022/08/15 09:04:29;;;;;;;;;;;;;;;28.99;48.53;100039.05;103375;1320;74283;-81
2022/08/15 09:06:55;;;;;;;5.30;4.60;;;;;;;28.96;48.50;100039.00;103330;1320;75701;-82
2022/08/15 09:09:34;;;;;;;6.20;5.30;;;;;;;28.96;48.68;100038.59;103186;1320;61448;-81
2022/08/15 09:14:51;;;;;;;6.30;5.00;;;;;;;28.96;48.41;100034.45;103384;1320;73839;-81
2022/08/15 09:17:17;;;;;;;6.00;5.00;;;;;;;28.96;48.59;100031.39;103229;1321;61384;-81
2022/08/15 09:19:55;;;;;;;5.70;4.70;;;;;;;28.96;48.48;100030.28;103392;1317;61494;-80
2022/08/15 09:22:21;;;;;;;6.40;4.60;;;;;;;28.97;48.43;100027.52;104172;1309;61181;-82
2022/08/15 09:24:46;;;;;;;5.60;5.00;;;;;;;28.96;48.57;100035.49;104578;1308;61268;-81
2022/08/15 09:27:20;;;;;;;5.60;5.00;;;;;;;28.96;48.48;100035.89;104531;1309;61173;-81
2022/08/15 09:30:04;;;;;;;5.50;5.00;;;;;;;28.97;48.48;100030.03;104621;1309;61461;-82
2022/08/15 09:32:50;;;;;;;5.90;5.20;;;;;;;28.97;48.42;100026.42;104524;1309;61176;-82
2022/08/15 09:35:40;;;;;;;5.80;4.90;;;;;;;28.97;48.64;100028.04;104592;1308;73653;-81
2022/08/15 09:38:19;;;;;;;6.10;4.90;;;;;;;28.97;48.66;100024.94;104597;1309;74773;-81
2022/08/15 09:40:57;;;;;;;6.10;5.30;;;;;;;28.97;48.64;100028.54;104586;1309;61178;-81
2022/08/15 09:43:42;;;;;;;5.80;4.90;;;;;;;28.97;48.50;100034.23;104582;1308;60844;-81
2022/08/15 09:46:13;;;;;;;6.00;4.80;;;;;;;28.97;48.56;100034.00;104571;1307;72806;-83
2022/08/15 09:48:57;;;;;;;5.90;5.20;;;;;;;28.97;48.53;100038.48;104407;1310;75906;-80
2022/08/15 09:51:58;;;;;;;6.50;4.70;;;;;;;28.98;48.51;100038.11;104548;1309;61142;-81
2022/08/15 09:54:25;;;;;;;6.20;5.10;;;;;;;28.97;48.56;100034.38;104471;1309;61244;-81
2022/08/15 09:57:11;;;;;;;6.10;4.80;;;;;;;28.97;48.32;100029.80;104392;1309;73116;-81
2022/08/15 09:59:37;;;;;;;6.60;5.20;;;;;;;28.98;48.82;100029.01;104733;1309;75675;-82
2022/08/15 10:02:19;;;;;;;5.60;4.60;;;;;;;28.99;48.70;100023.67;104273;1309;61457;-82
2022/08/15 10:04:45;;;;;;;5.80;5.10;;;;;;;28.99;48.64;100027.95;104525;1309;61291;-81
2022/08/15 10:07:29;;;;;;;6.20;5.10;;;;;;;29.00;48.58;100026.71;104448;1309;62125;-81
2022/08/15 10:10:01;;;;;;;5.70;5.10;;;;;;;29.01;48.55;100029.22;104498;1309;73645;-81
2022/08/15 10:12:27;;;;;;;6.20;5.40;;;;;;;29.02;48.65;100030.92;104502;1309;61176;-82
2022/08/15 10:15:01;;;;;;;5.80;4.90;;;;;;;29.01;48.55;100033.30;104401;1309;61326;-81
2022/08/15 10:17:34;;;;;;;5.50;4.90;;;;;;;29.02;48.55;100030.30;105164;1309;74158;-81
2022/08/15 10:20:18;;;;;;;5.50;4.90;;;;;;;29.02;48.56;100034.45;104328;1309;74712;-81
2022/08/15 10:22:59;;;;;;;6.70;5.30;;;;;;;29.03;48.40;100031.83;104281;1308;61361;-81
2022/08/15 10:25:40;;;;;;;5.20;4.70;;;;;;;29.04;48.41;100033.35;105302;1309;62191;-81
2022/08/15 10:28:12;;;;;;;6.00;5.40;;;;;;;29.05;48.36;100029.64;104269;1309;72762;-81
2022/08/15 10:31:01;;;;;;;6.80;5.00;;;;;;;29.05;48.47;100026.30;104438;1308;75962;-81
2022/08/15 10:33:50;;;;;;;5.50;4.70;;;;;;;29.06;48.45;100026.23;104518;1309;61273;-81
2022/08/15 10:36:35;;;;;;;5.90;5.30;;;;;;;29.05;48.24;100020.66;104246;1313;62111;-82
2022/08/15 10:39:32;;;;;;;5.80;5.10;;;;;;;29.06;48.23;100012.66;104239;1313;73841;-81
2022/08/15 10:42:03;;;;;;;5.70;5.10;;;;;;;29.05;48.44;100012.05;104277;1313;76048;-81
2022/08/15 10:44:55;;;;;;;5.90;5.00;;;;;;;29.05;48.21;100009.52;104240;1313;61186;-81
2022/08/15 10:47:54;;;;;;;5.60;5.00;;;;;;;29.04;48.14;100010.33;104260;1313;61506;-81
2022/08/15 10:50:26;;;;;;;6.00;5.20;;;;;;;29.03;48.14;100007.34;104290;1313;72901;-82
2022/08/15 10:53:07;;;;;;;6.00;5.20;;;;;;;29.03;48.41;100009.92;104239;1313;74815;-82
2022/08/15 10:55:38;;;;;;;5.70;5.00;;;;;;;29.02;48.21;100005.27;104268;1313;61918;-82
2022/08/15 10:58:28;;;;;;;5.50;4.90;;;;;;;29.02;48.28;99999.51;104302;1313;61145;-82
2022/08/15 11:01:04;;;;;;;6.00;5.00;;;;;;;29.01;48.30;99996.35;104224;1315;73583;-82
2022/08/15 11:03:39;;;;;;;5.60;4.80;;;;;;;29.01;48.24;99997.06;104278;1313;75791;-81
2022/08/15 11:06:07;;;;;;;6.60;4.90;;;;;;;29.01;48.13;99993.70;104265;1315;61178;-81
2022/08/15 11:08:34;;;;;;;6.10;5.10;;;;;;;29.00;48.15;99995.55;104259;1313;61307;-81
2022/08/15 11:11:05;;;;;;;6.40;5.10;;;;;;;29.00;48.28;99993.07;104281;1313;71675;-81
2022/08/15 11:13:31;;;;;;;7.50;5.50;;;;;;;29.00;48.37;99991.77;104305;1310;74823;-81
2022/08/15 11:16:06;;;;;;;6.10;5.00;;;;;;;28.99;48.22;99990.97;104405;1311;61202;-80
2022/08/15 11:18:49;;;;;;;6.00;5.00;;;;;;;28.99;48.35;99986.30;104478;1310;61756;-82
2022/08/15 11:21:33;;;;;;;6.00;5.00;;;;;;;28.99;48.02;99985.80;104491;1310;72712;-81
2022/08/15 11:24:06;;;;;;;6.90;5.00;;;;;;;28.98;48.13;99982.02;104470;1310;75804;-82
2022/08/15 11:26:36;;;;;;;5.90;5.00;;;;;;;28.98;48.22;99976.06;104415;1310;61320;-81
2022/08/15 11:29:15;;;;;;;5.80;5.20;;;;;;;28.98;48.29;99976.09;104507;1310;61770;-81
2022/08/15 11:31:54;;;;;;;6.10;5.00;;;;;;;28.97;48.39;99970.95;104479;1310;73894;-81
2022/08/15 11:34:23;;;;;;;5.70;5.10;;;;;;;28.97;48.20;99967.52;104404;1309;77029;-81
2022/08/15 11:37:12;;;;;;;5.70;4.70;;;;;;;28.97;48.41;99963.16;104469;1309;61416;-81
2022/08/15 11:39:43;;;;;;;6.20;4.90;;;;;;;28.96;48.21;99962.68;104486;1310;61266;-81
2022/08/15 11:42:10;;;;;;;6.30;5.20;;;;;;;28.97;48.35;99954.75;104450;1312;74142;-81
2022/08/15 11:44:56;;;;;;;6.00;5.40;;;;;;;28.97;48.40;99952.91;104450;1312;75772;-81
2022/08/15 11:47:22;;;;;;;5.60;4.90;;;;;;;28.96;48.16;99953.50;104488;1310;60963;-81
2022/08/15 11:49:48;;;;;;;6.70;5.30;;;;;;;28.96;48.45;99949.89;104431;1312;61281;-81
2022/08/15 11:52:40;;;;;;;6.00;5.10;;;;;;;28.96;48.16;99948.27;104432;1312;61292;-80
2022/08/15 11:55:20;;;;;;;6.30;5.40;;;;;;;28.96;48.12;99948.14;104412;1312;76154;-81
2022/08/15 11:57:49;;;;;;;6.20;5.20;;;;;;;28.96;47.99;99944.64;104466;1310;61160;-81
2022/08/15 12:00:31;;;;;;;5.50;4.80;;;;;;;28.95;47.89;99940.36;104392;1311;61174;-81